METAR Data
IDs: Format: Raw Decoded Include TAF

Data at: 0326 UTC 19 Oct 2021

KSGT 190256Z AUTO 14003KT 10SM CLR 14/09 A3015 RMK AO2 SLP208 T01390089 53010
KSGT 190156Z AUTO 11004KT 10SM CLR 16/09 A3013 RMK AO2 SLP204 T01560089
KSGT 190056Z AUTO 11006KT 10SM CLR 16/09 A3012 RMK AO2 SLP201 T01610094
KSGT 182356Z AUTO 12005KT 10SM CLR 17/09 A3012 RMK AO2 SLP198 T01720094 10222 20172 56010
KSGT 182256Z AUTO 14004KT 10SM CLR 21/07 A3012 RMK AO2 SLP201 T02060072
KSGT 182156Z AUTO 13003KT 10SM CLR 22/06 A3013 RMK AO2 SLP204 T02220061
KSGT 182056Z AUTO 14005KT 9SM CLR 22/06 A3015 RMK AO2 SLP209 T02220056 56024
KSGT 182003Z AUTO 10005KT 9SM CLR 22/06 A3016 RMK AO2
KSGT 181956Z AUTO 00000KT 2 1/2SM HZ CLR 22/06 A3016 RMK AO2 VIS 3/4V5 SLP214 T02170056
KSGT 181951Z AUTO 13004KT 1SM HZ CLR 22/05 A3016 RMK AO2 RVRNO
KSGT 181941Z AUTO 14005KT 1/2SM HZ CLR 21/06 A3016 RMK AO2 VIS M1/4V4 RVRNO
KSGT 181927Z AUTO 16008KT 3/4SM HZ CLR 22/06 A3017 RMK AO2 VIS 1/2V5 RVRNO
KSGT 181923Z AUTO VRB04KT 1 3/4SM HZ CLR 22/06 A3017 RMK AO2 VIS 1/2V5
KSGT 181856Z AUTO 00000KT 10SM CLR 21/06 A3018 RMK AO2 SLP221 T02110056
KSGT 181756Z AUTO 19004KT 8SM CLR 21/07 A3022 RMK AO2 SLP233 T02060067 10206 20094 58013
KSGT 181656Z AUTO 20005KT 10SM CLR 18/08 A3025 RMK AO2 SLP242 T01830083
KSGT 181556Z AUTO 17005KT 10SM CLR 17/08 A3026 RMK AO2 SLP247 T01720083
KSGT 181456Z AUTO 17004KT 10SM CLR 16/09 A3026 RMK AO2 SLP247 T01610089 51013
KSGT 181356Z AUTO 00000KT 4SM HZ CLR 13/10 A3025 RMK AO2 SLP244 T01330100
KSGT 181341Z AUTO 00000KT 4SM HZ CLR 13/09 A3025 RMK AO2
KSGT 181326Z AUTO 00000KT 1 1/2SM HZ CLR 12/09 A3024 RMK AO2 VIS 3/4V5
KSGT 181256Z AUTO 00000KT 4SM BR CLR 09/09 A3023 RMK AO2 SLP237 T00940089
KSGT 181254Z AUTO 00000KT 3SM BR CLR 09/08 A3023 RMK AO2
KSGT 181250Z AUTO 00000KT 1 1/4SM BR CLR 09/09 A3023 RMK AO2 VIS 1/2V5
KSGT 181244Z AUTO 09003KT 3/4SM BR CLR 09/09 A3023 RMK AO2 RVRNO
KSGT 181237Z AUTO 09003KT 1 3/4SM BR CLR 10/09 A3023 RMK AO2
KSGT 181156Z AUTO 00000KT 10SM CLR 09/09 A3022 RMK AO2 SLP234 T00890089 10122 20072 53007
KSGT 181134Z AUTO 00000KT 3SM BR CLR 08/08 A3022 RMK AO2
KSGT 181129Z AUTO 00000KT 1 1/4SM BR CLR 08/07 A3022 RMK AO2 VIS 1/2V5
KSGT 181119Z AUTO 00000KT 3/4SM BR CLR 08/07 A3022 RMK AO2 VIS 1/2V5 RVRNO
KSGT 181115Z AUTO 00000KT 1 1/2SM BR CLR 08/08 A3022 RMK AO2
KSGT 181056Z AUTO 00000KT 10SM CLR 09/08 A3022 RMK AO2 SLP233 T00890083
KSGT 180956Z AUTO 00000KT 10SM CLR 10/09 A3020 RMK AO2 SLP228 T01000089
KSGT 180856Z AUTO 00000KT 10SM CLR 09/08 A3020 RMK AO2 SLP227 T00940083 55005
KSGT 180756Z AUTO 00000KT 10SM CLR 09/09 A3020 RMK AO2 SLP227 T00940089
KSGT 180656Z AUTO 00000KT 10SM CLR 10/08 A3021 RMK AO2 SLP229 T01000083
KSGT 180556Z AUTO 13004KT 10SM CLR 12/09 A3022 RMK AO2 SLP232 T01170094 10183 20117 402170072 58005
KSGT 180456Z AUTO 00000KT 10SM CLR 12/09 A3023 RMK AO2 SLP235 T01220089
KSGT 180356Z AUTO 13004KT 10SM CLR 13/09 A3024 RMK AO2 SLP239 T01280094
KSGT 180256Z AUTO 00000KT 10SM CLR 13/09 A3023 RMK AO2 SLP238 T01330089 53003
KSGT 180156Z AUTO 15003KT 6SM HZ CLR 15/08 A3023 RMK AO2 SLP236 T01500078
KSGT 180056Z AUTO 00000KT 10SM CLR 17/07 A3023 RMK AO2 SLP235 T01670067
KSGT 172356Z AUTO 00000KT 10SM CLR 18/05 A3022 RMK AO2 SLP234 T01830050 10217 20183 56003
KSGT 172256Z AUTO 33003KT 10SM CLR 20/03 A3022 RMK AO2 SLP234 T02000033
KSGT 172156Z AUTO 00000KT 10SM CLR 21/03 A3023 RMK AO2 SLP235 T02110033
KSGT 172056Z AUTO VRB03KT 10SM CLR 21/03 A3023 RMK AO2 SLP238 T02110033 56025
KSGT 171956Z AUTO 35005KT 10SM CLR 21/03 A3025 RMK AO2 SLP244 T02110033
KSGT 171856Z AUTO VRB03KT 10SM CLR 21/03 A3028 RMK AO2 SLP253 T02060028
KSGT 171756Z AUTO 02005KT 10SM CLR 21/03 A3031 RMK AO2 SLP263 T02060033 10206 20072 58009
KSGT 171656Z AUTO 00000KT 10SM CLR 19/04 A3034 RMK AO2 SLP273 T01890039
KSGT 171556Z AUTO 00000KT 10SM CLR 17/07 A3034 RMK AO2 SLP275 T01720067